createdAt,value
2018-09-18T00:00:56.831Z,101634.99
2018-09-18T00:01:57.286Z,101634.88
2018-09-18T00:02:57.928Z,101634.58
2018-09-18T00:03:58.209Z,101634.72
2018-09-18T00:04:58.822Z,101634.89
2018-09-18T00:05:59.706Z,101634.68
2018-09-18T00:07:00.495Z,101634.14
2018-09-18T00:08:00.766Z,101634.02
2018-09-18T00:09:00.741Z,101633.89
2018-09-18T00:10:01.494Z,101633.80
2018-09-18T00:11:02.265Z,101633.34
2018-09-18T00:12:02.551Z,101632.66
2018-09-18T00:13:02.889Z,101632.02
2018-09-18T00:14:02.943Z,101631.60
2018-09-18T00:15:03.462Z,101630.79
2018-09-18T00:16:04.448Z,101630.45
2018-09-18T00:17:04.700Z,101630.03
2018-09-18T00:18:05.531Z,101629.44
2018-09-18T00:19:06.328Z,101629.02
2018-09-18T00:20:06.830Z,101628.38
2018-09-18T00:21:07.467Z,101627.61
2018-09-18T00:22:07.834Z,101626.69
2018-09-18T00:23:08.229Z,101626.22
2018-09-18T00:23:16.270Z,101621.17
2018-09-18T00:24:17.773Z,101620.41
2018-09-18T00:25:17.151Z,101620.75
2018-09-18T00:26:18.897Z,101620.83
2018-09-18T00:27:19.447Z,101620.36
2018-09-18T00:28:19.890Z,101620.15
2018-09-18T00:29:20.303Z,101620.06
2018-09-18T00:30:20.838Z,101619.00
2018-09-18T00:31:21.214Z,101618.50
2018-09-18T00:32:21.836Z,101618.55
2018-09-18T00:33:22.829Z,101618.08
2018-09-18T00:34:23.712Z,101617.88
2018-09-18T00:35:24.430Z,101617.02
2018-09-18T00:36:24.963Z,101616.39
2018-09-18T00:37:25.937Z,101616.02
2018-09-18T00:38:26.761Z,101615.47
2018-09-18T00:39:27.712Z,101614.80
2018-09-18T00:40:28.214Z,101614.16
2018-09-18T00:41:28.585Z,101613.70
2018-09-18T00:42:29.035Z,101613.31
2018-09-18T00:43:29.463Z,101612.98
2018-09-18T00:44:30.079Z,101612.73
2018-09-18T00:45:30.567Z,101612.30
2018-09-18T00:46:30.617Z,101612.22
2018-09-18T00:47:31.043Z,101611.61
2018-09-18T00:48:31.430Z,101610.94
2018-09-18T00:49:31.974Z,101610.42
2018-09-18T00:50:32.453Z,101609.67
2018-09-18T00:51:32.881Z,101608.70
2018-09-18T00:52:33.628Z,101608.44
2018-09-18T00:53:34.000Z,101607.72
2018-09-18T00:54:34.945Z,101606.92
2018-09-18T00:55:35.356Z,101606.28
2018-09-18T00:56:36.233Z,101605.73
2018-09-18T00:57:36.693Z,101605.52
2018-09-18T00:58:37.219Z,101604.30
2018-09-18T00:59:38.129Z,101604.09
2018-09-18T01:00:38.586Z,101604.35
2018-09-18T01:01:39.430Z,101603.89
2018-09-18T01:02:39.937Z,101603.39
2018-09-18T01:03:40.435Z,101603.14
2018-09-18T01:04:40.797Z,101602.81
2018-09-18T01:05:41.174Z,101602.98
2018-09-18T01:06:41.582Z,101602.73
2018-09-18T01:07:42.035Z,101602.40
2018-09-18T01:07:51.968Z,101596.50
2018-09-18T01:08:53.387Z,101596.08
2018-09-18T01:09:54.157Z,101595.90
2018-09-18T01:10:54.575Z,101595.34
2018-09-18T01:11:55.562Z,101594.84
2018-09-18T01:12:56.205Z,101594.76
2018-09-18T01:13:56.781Z,101594.45
2018-09-18T01:14:57.137Z,101593.61
2018-09-18T01:15:57.738Z,101592.97
2018-09-18T01:16:58.210Z,101592.25
2018-09-18T01:17:58.617Z,101591.84
2018-09-18T01:18:58.941Z,101591.28
2018-09-18T01:19:59.326Z,101590.73
2018-09-18T01:20:59.804Z,101589.72
2018-09-18T01:22:00.421Z,101589.46
2018-09-18T01:23:00.840Z,101588.65
2018-09-18T01:24:01.616Z,101588.31
2018-09-18T01:25:02.205Z,101588.27
2018-09-18T01:26:02.612Z,101587.68
2018-09-18T01:27:03.049Z,101587.42
2018-09-18T01:28:03.607Z,101587.04
2018-09-18T01:29:04.082Z,101587.00
2018-09-18T01:30:04.783Z,101586.45
2018-09-18T01:31:05.270Z,101585.98
2018-09-18T01:32:05.749Z,101585.86
2018-09-18T01:33:06.180Z,101585.48
2018-09-18T01:34:06.707Z,101585.19
2018-09-18T01:35:07.126Z,101585.23
2018-09-18T01:36:07.546Z,101584.47
2018-09-18T01:37:08.306Z,101584.52
2018-09-18T01:38:08.839Z,101584.02
2018-09-18T01:39:09.442Z,101583.77
2018-09-18T01:40:09.645Z,101583.69
2018-09-18T01:41:10.330Z,101583.78
2018-09-18T01:42:10.599Z,101583.78
2018-09-18T01:43:10.878Z,101583.92
2018-09-18T01:44:11.231Z,101584.61
2018-09-18T01:45:11.577Z,101584.36
2018-09-18T01:46:11.955Z,101584.52
2018-09-18T01:47:12.452Z,101584.86
2018-09-18T01:48:12.968Z,101584.48
2018-09-18T01:49:13.352Z,101585.13
2018-09-18T01:50:14.030Z,101584.36
2018-09-18T01:51:14.292Z,101584.49
2018-09-18T01:52:14.975Z,101584.37
2018-09-18T01:52:23.314Z,101575.17
2018-09-18T01:53:24.058Z,101575.51
2018-09-18T01:54:23.481Z,101575.42
2018-09-18T01:55:25.013Z,101575.34
2018-09-18T01:56:25.678Z,101575.72
2018-09-18T01:57:26.059Z,101576.31
2018-09-18T01:58:26.487Z,101576.36
2018-09-18T01:59:26.934Z,101577.42
2018-09-18T02:00:27.360Z,101577.34
2018-09-18T02:01:27.747Z,101578.32
2018-09-18T02:02:28.239Z,101578.87
2018-09-18T02:03:28.751Z,101579.16
2018-09-18T02:04:29.104Z,101579.34
2018-09-18T02:05:29.670Z,101580.31
2018-09-18T02:06:30.088Z,101580.31
2018-09-18T02:07:30.384Z,101580.91
2018-09-18T02:08:30.777Z,101580.91
2018-09-18T02:09:31.333Z,101581.33
2018-09-18T02:10:31.757Z,101581.55
2018-09-18T02:11:32.261Z,101582.40
2018-09-18T02:12:32.742Z,101581.93
2018-09-18T02:13:33.184Z,101582.56
2018-09-18T02:14:33.812Z,101582.95
2018-09-18T02:15:34.243Z,101582.83
2018-09-18T02:16:34.643Z,101583.20
2018-09-18T02:17:35.069Z,101583.80
2018-09-18T02:18:35.748Z,101583.97
2018-09-18T02:19:36.406Z,101584.52
2018-09-18T02:20:36.422Z,101584.89
2018-09-18T02:21:37.219Z,101584.65
2018-09-18T02:22:37.685Z,101584.77
2018-09-18T02:23:38.526Z,101584.82
2018-09-18T02:24:39.475Z,101585.38
2018-09-18T02:25:40.086Z,101585.67
2018-09-18T02:26:40.444Z,101585.92
2018-09-18T02:27:40.800Z,101585.80
2018-09-18T02:28:41.212Z,101585.80
2018-09-18T02:29:41.874Z,101585.70
2018-09-18T02:30:42.420Z,101585.87
2018-09-18T02:31:43.031Z,101586.30
2018-09-18T02:32:43.624Z,101586.39
2018-09-18T02:33:44.006Z,101586.34
2018-09-18T02:34:44.532Z,101586.39
2018-09-18T02:35:44.979Z,101586.86
2018-09-18T02:35:53.324Z,101584.61
2018-09-18T02:36:54.839Z,101584.78
2018-09-18T02:37:55.853Z,101585.20
2018-09-18T02:38:56.469Z,101584.98
2018-09-18T02:39:57.052Z,101585.49
2018-09-18T02:40:57.765Z,101586.09
2018-09-18T02:41:58.431Z,101586.34
2018-09-18T02:42:58.537Z,101586.98
2018-09-18T02:43:59.446Z,101586.81
2018-09-18T02:44:59.761Z,101586.69
2018-09-18T02:46:00.056Z,101586.90
2018-09-18T02:47:00.151Z,101586.98
2018-09-18T02:48:00.684Z,101587.11
2018-09-18T02:49:01.494Z,101587.15
2018-09-18T02:50:01.579Z,101586.80
2018-09-18T02:51:02.027Z,101586.84
2018-09-18T02:52:02.779Z,101586.64
2018-09-18T02:53:03.235Z,101586.37
2018-09-18T02:54:04.141Z,101586.59
2018-09-18T02:55:05.079Z,101586.37
2018-09-18T02:56:05.798Z,101586.25
2018-09-18T02:57:06.517Z,101585.99
2018-09-18T02:58:06.785Z,101586.20
2018-09-18T02:59:07.348Z,101585.83
2018-09-18T03:00:07.908Z,101586.37
2018-09-18T03:01:08.264Z,101586.75
2018-09-18T03:02:08.949Z,101587.09
2018-09-18T03:03:09.493Z,101586.70
2018-09-18T03:04:10.329Z,101587.43
2018-09-18T03:05:10.912Z,101586.96
2018-09-18T03:06:11.209Z,101586.41
2018-09-18T03:07:10.725Z,101586.28
2018-09-18T03:08:12.676Z,101586.27
2018-09-18T03:09:12.973Z,101585.98
2018-09-18T03:10:13.485Z,101585.59
2018-09-18T03:11:13.995Z,101585.64
2018-09-18T03:12:13.265Z,101584.78
2018-09-18T03:13:14.738Z,101584.23
2018-09-18T03:14:15.699Z,101584.66
2018-09-18T03:15:16.062Z,101584.31
2018-09-18T03:16:16.502Z,101583.80
2018-09-18T03:17:17.142Z,101583.96
2018-09-18T03:18:17.462Z,101584.00
2018-09-18T03:19:17.829Z,101583.23
2018-09-18T03:20:18.606Z,101582.86
2018-09-18T03:21:18.871Z,101582.59
2018-09-18T03:21:27.338Z,101583.31
2018-09-18T03:22:28.787Z,101581.66
2018-09-18T03:23:29.063Z,101580.81
2018-09-18T03:24:29.596Z,101581.06
2018-09-18T03:25:30.064Z,101580.81
2018-09-18T03:26:30.348Z,101580.69
2018-09-18T03:27:30.726Z,101580.02
2018-09-18T03:28:30.098Z,101579.54
2018-09-18T03:29:31.588Z,101579.29
2018-09-18T03:30:31.870Z,101578.66
2018-09-18T03:31:32.216Z,101577.92
2018-09-18T03:32:32.775Z,101577.84
2018-09-18T03:33:33.132Z,101577.12
2018-09-18T03:34:33.960Z,101576.91
2018-09-18T03:35:33.306Z,101576.34
2018-09-18T03:36:33.552Z,101575.70
2018-09-18T03:37:34.971Z,101575.16
2018-09-18T03:38:35.341Z,101574.69
2018-09-18T03:39:35.633Z,101573.97
2018-09-18T03:40:36.340Z,101573.84
2018-09-18T03:41:36.592Z,101573.31
2018-09-18T03:42:36.842Z,101572.52
2018-09-18T03:43:37.459Z,101571.57
2018-09-18T03:44:37.473Z,101571.02
2018-09-18T03:45:37.914Z,101570.38
2018-09-18T03:46:38.378Z,101570.28
2018-09-18T03:47:38.953Z,101570.16
2018-09-18T03:48:39.648Z,101569.56
2018-09-18T03:49:40.026Z,101568.50
2018-09-18T03:50:40.383Z,101567.91
2018-09-18T03:51:40.741Z,101567.91
2018-09-18T03:52:41.123Z,101567.69
2018-09-18T03:53:41.428Z,101566.84
2018-09-18T03:54:41.748Z,101566.80
2018-09-18T03:55:42.009Z,101566.55
2018-09-18T03:56:41.477Z,101566.03
2018-09-18T03:57:43.217Z,101566.00
2018-09-18T03:58:43.675Z,101565.66
2018-09-18T03:59:44.214Z,101565.02
2018-09-18T04:00:44.534Z,101564.59
2018-09-18T04:01:45.029Z,101563.95
2018-09-18T04:02:45.403Z,101563.62
2018-09-18T04:03:44.975Z,101563.48
2018-09-18T04:04:46.609Z,101562.90
2018-09-18T04:05:46.977Z,101562.77
2018-09-18T04:06:47.216Z,101561.95
2018-09-18T04:07:47.491Z,101561.66
2018-09-18T04:08:47.789Z,101560.81
2018-09-18T04:09:47.379Z,101560.51
2018-09-18T04:09:55.849Z,101564.01
2018-09-18T04:10:57.215Z,101556.36
2018-09-18T04:11:57.468Z,101556.53
2018-09-18T04:12:57.902Z,101556.08
2018-09-18T04:13:58.550Z,101555.39
2018-09-18T04:14:59.125Z,101555.65
2018-09-18T04:15:59.464Z,101555.23
2018-09-18T04:16:59.832Z,101555.10
2018-09-18T04:18:00.188Z,101555.06
2018-09-18T04:19:00.818Z,101554.52
2018-09-18T04:20:01.093Z,101554.42
2018-09-18T04:21:01.705Z,101554.81
2018-09-18T04:22:02.076Z,101554.44
2018-09-18T04:23:02.550Z,101554.52
2018-09-18T04:24:03.070Z,101553.92
2018-09-18T04:25:03.274Z,101553.55
2018-09-18T04:26:03.275Z,101553.60
2018-09-18T04:27:03.546Z,101553.14
2018-09-18T04:28:03.815Z,101552.97
2018-09-18T04:29:04.259Z,101552.71
2018-09-18T04:30:04.452Z,101552.88
2018-09-18T04:31:04.870Z,101553.05
2018-09-18T04:32:05.112Z,101552.54
2018-09-18T04:33:05.475Z,101552.37
2018-09-18T04:34:05.775Z,101552.24
2018-09-18T04:35:06.077Z,101552.33
2018-09-18T04:36:06.312Z,101551.91
2018-09-18T04:37:06.824Z,101552.66
2018-09-18T04:38:07.262Z,101552.63
2018-09-18T04:39:07.495Z,101552.79
2018-09-18T04:40:07.961Z,101553.25
2018-09-18T04:41:08.272Z,101553.46
2018-09-18T04:42:08.548Z,101553.58
2018-09-18T04:43:09.053Z,101553.41
2018-09-18T04:44:09.527Z,101553.38
2018-09-18T04:45:10.125Z,101552.73
2018-09-18T04:46:10.838Z,101552.47
2018-09-18T04:47:11.116Z,101552.00
2018-09-18T04:48:11.801Z,101551.45
2018-09-18T04:49:12.550Z,101550.84
2018-09-18T04:50:12.775Z,101550.76
2018-09-18T04:51:13.004Z,101550.55
2018-09-18T04:52:13.331Z,101549.56
2018-09-18T04:53:13.688Z,101549.69
2018-09-18T04:53:21.815Z,101556.41
2018-09-18T04:54:23.147Z,101544.97
2018-09-18T04:55:23.598Z,101545.23
2018-09-18T04:56:23.885Z,101545.56
2018-09-18T04:57:24.182Z,101545.94
2018-09-18T04:58:24.442Z,101545.89
2018-09-18T04:59:24.765Z,101545.98
2018-09-18T05:00:25.195Z,101546.66
2018-09-18T05:01:25.731Z,101546.66
2018-09-18T05:02:26.043Z,101546.99
2018-09-18T05:03:26.299Z,101547.92
2018-09-18T05:04:26.608Z,101548.18
2018-09-18T05:05:26.901Z,101548.27
2018-09-18T05:06:27.414Z,101548.77
2018-09-18T05:07:27.670Z,101548.86
2018-09-18T05:08:28.080Z,101549.15
2018-09-18T05:09:28.987Z,101549.48
2018-09-18T05:10:28.550Z,101549.32
2018-09-18T05:11:30.179Z,101549.61
2018-09-18T05:12:31.793Z,101550.08
2018-09-18T05:13:31.372Z,101550.02
2018-09-18T05:14:31.489Z,101550.06
2018-09-18T05:15:32.344Z,101549.81
2018-09-18T05:16:32.692Z,101550.15
2018-09-18T05:17:33.063Z,101550.23
2018-09-18T05:18:32.642Z,101550.28
2018-09-18T05:19:32.950Z,101550.53
2018-09-18T05:20:34.492Z,101550.70
2018-09-18T05:21:35.236Z,101550.88
2018-09-18T05:22:35.588Z,101551.30
2018-09-18T05:23:35.833Z,101551.63
2018-09-18T05:24:36.334Z,101551.75
2018-09-18T05:25:36.789Z,101552.35
2018-09-18T05:26:36.038Z,101552.98
2018-09-18T05:27:37.529Z,101553.41
2018-09-18T05:28:37.667Z,101553.87
2018-09-18T05:29:37.972Z,101554.92
2018-09-18T05:30:38.364Z,101555.17
2018-09-18T05:31:38.985Z,101555.68
2018-09-18T05:32:39.309Z,101555.72
2018-09-18T05:33:40.016Z,101555.97
2018-09-18T05:34:39.319Z,101556.14
2018-09-18T05:35:40.639Z,101556.73
2018-09-18T05:36:41.043Z,101557.03
2018-09-18T05:37:41.252Z,101558.05
2018-09-18T05:38:41.521Z,101558.61
2018-09-18T05:39:41.791Z,101559.42
2018-09-18T05:40:42.174Z,101560.52
2018-09-18T05:41:42.543Z,101561.28
2018-09-18T05:41:51.029Z,101580.05
2018-09-18T05:42:50.681Z,101579.45
2018-09-18T05:43:52.008Z,101579.37
2018-09-18T05:44:52.300Z,101579.76
2018-09-18T05:45:52.666Z,101579.33
2018-09-18T05:46:53.448Z,101579.75
2018-09-18T05:47:53.882Z,101580.52
2018-09-18T05:48:54.126Z,101580.22
2018-09-18T05:49:54.657Z,101581.07
2018-09-18T05:50:55.014Z,101581.45
2018-09-18T05:51:55.263Z,101581.71
2018-09-18T05:52:55.938Z,101581.80
2018-09-18T05:53:56.412Z,101582.56
2018-09-18T05:54:56.635Z,101583.28
2018-09-18T05:55:57.125Z,101584.22
2018-09-18T05:56:57.531Z,101585.06
2018-09-18T05:57:58.098Z,101585.31
2018-09-18T05:58:58.220Z,101585.99
2018-09-18T05:59:58.492Z,101586.41
2018-09-18T06:00:58.229Z,101587.31
2018-09-18T06:01:59.757Z,101587.82
2018-09-18T06:03:00.017Z,101587.44
2018-09-18T06:04:00.365Z,101587.98
2018-09-18T06:05:00.674Z,101588.58
2018-09-18T06:06:01.002Z,101588.75
2018-09-18T06:07:01.277Z,101588.80
2018-09-18T06:08:02.127Z,101589.05
2018-09-18T06:09:02.681Z,101589.30
2018-09-18T06:10:03.123Z,101589.90
2018-09-18T06:11:03.526Z,101590.03
2018-09-18T06:12:04.117Z,101590.63
2018-09-18T06:13:04.491Z,101590.88
2018-09-18T06:14:04.874Z,101590.80
2018-09-18T06:15:05.122Z,101591.02
2018-09-18T06:16:05.357Z,101591.61
2018-09-18T06:17:05.752Z,101591.18
2018-09-18T06:18:06.262Z,101591.82
2018-09-18T06:19:06.810Z,101591.73
2018-09-18T06:20:06.048Z,101591.78
2018-09-18T06:21:07.654Z,101591.91
2018-09-18T06:22:07.825Z,101591.62
2018-09-18T06:23:08.200Z,101591.37
2018-09-18T06:24:08.705Z,101591.25
2018-09-18T06:25:09.133Z,101590.66
2018-09-18T06:26:09.482Z,101590.70
2018-09-18T06:27:08.758Z,101590.53
2018-09-18T06:28:10.197Z,101590.23
2018-09-18T06:29:10.527Z,101590.54
2018-09-18T06:29:18.875Z,101588.55
2018-09-18T06:30:20.026Z,101585.24
2018-09-18T06:31:20.269Z,101585.08
2018-09-18T06:32:20.608Z,101585.24
2018-09-18T06:33:20.967Z,101585.50
2018-09-18T06:34:21.391Z,101585.07
2018-09-18T06:35:21.825Z,101585.04
2018-09-18T06:36:21.317Z,101584.49
2018-09-18T06:37:22.879Z,101584.40
2018-09-18T06:38:23.313Z,101584.79
2018-09-18T06:39:23.699Z,101585.09
2018-09-18T06:40:24.538Z,101585.22
2018-09-18T06:41:25.196Z,101585.73
2018-09-18T06:42:25.725Z,101585.65
2018-09-18T06:43:25.012Z,101586.28
2018-09-18T06:44:26.289Z,101586.42
2018-09-18T06:45:26.541Z,101586.64
2018-09-18T06:46:26.846Z,101587.62
2018-09-18T06:47:27.437Z,101588.09
2018-09-18T06:48:27.776Z,101588.64
2018-09-18T06:49:27.990Z,101589.48
2018-09-18T06:50:28.335Z,101589.31
2018-09-18T06:51:28.560Z,101589.20
2018-09-18T06:52:28.795Z,101589.20
2018-09-18T06:53:29.098Z,101589.58
2018-09-18T06:54:29.375Z,101589.07
2018-09-18T06:55:29.997Z,101588.77
2018-09-18T06:56:30.476Z,101588.31
2018-09-18T06:57:30.905Z,101588.70
2018-09-18T06:58:31.883Z,101588.41
2018-09-18T06:59:32.304Z,101588.15
2018-09-18T07:00:32.773Z,101587.86
2018-09-18T07:01:33.044Z,101588.16
2018-09-18T07:02:33.729Z,101587.61
2018-09-18T07:03:34.191Z,101587.83
2018-09-18T07:04:34.574Z,101587.11
2018-09-18T07:05:34.798Z,101586.86
2018-09-18T07:06:34.996Z,101586.27
2018-09-18T07:07:35.280Z,101586.27
2018-09-18T07:08:35.693Z,101586.11
2018-09-18T07:09:35.969Z,101586.25
2018-09-18T07:10:36.613Z,101585.92
2018-09-18T07:11:37.111Z,101585.84
2018-09-18T07:12:37.873Z,101585.25
2018-09-18T07:13:38.149Z,101584.48
2018-09-18T07:13:46.534Z,101576.53
2018-09-18T07:14:47.952Z,101574.31
2018-09-18T07:15:48.206Z,101574.11
2018-09-18T07:16:48.884Z,101574.06
2018-09-18T07:17:49.308Z,101574.28
2018-09-18T07:18:49.720Z,101574.03
2018-09-18T07:19:50.018Z,101573.86
2018-09-18T07:20:50.652Z,101573.36
2018-09-18T07:21:51.289Z,101572.77
2018-09-18T07:22:51.795Z,101572.72
2018-09-18T07:23:52.251Z,101572.59
2018-09-18T07:24:52.704Z,101572.09
2018-09-18T07:25:51.928Z,101571.75
2018-09-18T07:26:53.319Z,101570.86
2018-09-18T07:27:53.719Z,101569.95
2018-09-18T07:28:54.197Z,101568.91
2018-09-18T07:29:54.493Z,101568.73
2018-09-18T07:30:55.015Z,101568.24
2018-09-18T07:31:55.315Z,101567.71
2018-09-18T07:32:55.916Z,101567.31
2018-09-18T07:33:56.304Z,101566.44
2018-09-18T07:34:55.718Z,101565.70
2018-09-18T07:35:57.077Z,101565.13
2018-09-18T07:36:57.382Z,101565.42
2018-09-18T07:37:57.803Z,101565.62
2018-09-18T07:38:58.373Z,101565.25
2018-09-18T07:39:58.886Z,101564.59
2018-09-18T07:40:59.171Z,101564.41
2018-09-18T07:41:58.467Z,101563.91
2018-09-18T07:42:59.864Z,101563.80
2018-09-18T07:44:00.285Z,101563.50
2018-09-18T07:45:00.606Z,101562.81
2018-09-18T07:46:00.945Z,101561.80
2018-09-18T07:47:01.781Z,101561.48
2018-09-18T07:48:01.993Z,101560.62
2018-09-18T07:49:02.267Z,101559.63
2018-09-18T07:50:02.570Z,101558.33
2018-09-18T07:51:02.191Z,101557.37
2018-09-18T07:52:04.042Z,101556.00
2018-09-18T07:53:03.349Z,101554.84
2018-09-18T07:54:04.392Z,101554.41
2018-09-18T07:55:04.844Z,101552.98
2018-09-18T07:56:05.115Z,101551.92
2018-09-18T07:57:05.429Z,101550.78
2018-09-18T07:58:05.659Z,101550.48
2018-09-18T07:59:06.294Z,101549.21
2018-09-18T08:00:06.545Z,101548.70
2018-09-18T08:00:14.655Z,101536.89
2018-09-18T08:01:15.993Z,101535.95
2018-09-18T08:02:16.895Z,101535.80
2018-09-18T08:03:17.339Z,101535.63
2018-09-18T08:04:16.624Z,101535.80
2018-09-18T08:05:17.960Z,101535.67
2018-09-18T08:06:18.408Z,101535.57
2018-09-18T08:07:19.025Z,101535.37
2018-09-18T08:08:19.316Z,101535.50
2018-09-18T08:09:19.619Z,101534.94
2018-09-18T08:10:20.378Z,101534.74
2018-09-18T08:11:21.193Z,101535.10
2018-09-18T08:12:21.734Z,101534.69
2018-09-18T08:13:22.635Z,101534.63
2018-09-18T08:14:23.275Z,101533.64
2018-09-18T08:15:23.591Z,101533.48
2018-09-18T08:16:24.154Z,101534.06
2018-09-18T08:17:24.476Z,101533.59
2018-09-18T08:18:25.304Z,101533.77
2018-09-18T08:19:25.684Z,101533.52
2018-09-18T08:20:25.259Z,101533.34
2018-09-18T08:21:26.860Z,101532.58
2018-09-18T08:22:27.605Z,101532.39
2018-09-18T08:23:27.802Z,101531.97
2018-09-18T08:24:28.334Z,101530.69
2018-09-18T08:25:28.637Z,101530.22
2018-09-18T08:26:28.086Z,101529.57
2018-09-18T08:27:29.353Z,101529.14
2018-09-18T08:28:29.711Z,101528.12
2018-09-18T08:29:30.012Z,101527.47
2018-09-18T08:30:30.224Z,101527.01
2018-09-18T08:31:30.769Z,101526.56
2018-09-18T08:32:31.291Z,101526.23
2018-09-18T08:33:30.554Z,101525.86
2018-09-18T08:34:32.230Z,101525.79
2018-09-18T08:35:32.710Z,101525.87
2018-09-18T08:36:33.235Z,101525.39
2018-09-18T08:37:33.574Z,101524.59
2018-09-18T08:38:34.104Z,101524.64
2018-09-18T08:39:34.474Z,101524.63
2018-09-18T08:40:34.303Z,101524.10
2018-09-18T08:41:35.879Z,101523.45
2018-09-18T08:42:36.636Z,101522.84
2018-09-18T08:43:37.265Z,101522.44
2018-09-18T08:44:37.543Z,101521.40
2018-09-18T08:45:37.997Z,101520.64
2018-09-18T08:46:38.278Z,101519.45
2018-09-18T08:46:46.629Z,101515.12
2018-09-18T08:47:48.007Z,101514.48
2018-09-18T08:48:48.404Z,101514.42
2018-09-18T08:49:48.750Z,101514.36
2018-09-18T08:50:49.289Z,101514.09
2018-09-18T08:51:49.937Z,101513.14
2018-09-18T08:52:49.604Z,101512.34
2018-09-18T08:53:50.952Z,101511.17
2018-09-18T08:54:51.317Z,101510.25
2018-09-18T08:55:51.681Z,101509.74
2018-09-18T08:56:52.388Z,101509.09
2018-09-18T08:57:52.951Z,101508.40
2018-09-18T08:58:53.227Z,101507.76
2018-09-18T08:59:52.872Z,101507.46
2018-09-18T09:00:54.720Z,101507.41
2018-09-18T09:01:55.285Z,101507.56
2018-09-18T09:02:55.660Z,101507.44
2018-09-18T09:03:56.292Z,101507.23
2018-09-18T09:04:55.594Z,101506.64
2018-09-18T09:05:56.738Z,101506.61
2018-09-18T09:06:56.304Z,101506.29
2018-09-18T09:07:58.261Z,101506.14
2018-09-18T09:08:57.517Z,101506.00
2018-09-18T09:09:57.698Z,101506.51
2018-09-18T09:10:59.175Z,101506.64
2018-09-18T09:11:58.302Z,101506.77
2018-09-18T09:12:59.579Z,101507.45
2018-09-18T09:14:00.032Z,101506.98
2018-09-18T09:15:00.510Z,101507.19
2018-09-18T09:15:59.731Z,101506.68
2018-09-18T09:17:01.132Z,101506.91
2018-09-18T09:18:01.270Z,101507.34
2018-09-18T09:19:01.116Z,101507.36
2018-09-18T09:20:02.857Z,101507.48
2018-09-18T09:21:02.502Z,101507.41
2018-09-18T09:22:02.820Z,101507.45
2018-09-18T09:23:03.104Z,101507.23
2018-09-18T09:24:03.297Z,101507.33
2018-09-18T09:25:05.096Z,101507.06
2018-09-18T09:26:05.676Z,101507.30
2018-09-18T09:27:06.191Z,101507.63
2018-09-18T09:28:06.645Z,101507.75
2018-09-18T09:29:07.226Z,101507.77
2018-09-18T09:30:07.439Z,101507.23
2018-09-18T09:31:06.679Z,101506.73
2018-09-18T09:32:07.996Z,101506.45
2018-09-18T09:33:07.322Z,101506.08
2018-09-18T09:34:08.788Z,101505.68
2018-09-18T09:35:09.214Z,101504.31
2018-09-18T09:36:09.984Z,101504.23
2018-09-18T09:37:09.578Z,101503.24
2018-09-18T09:38:09.975Z,101503.05
2018-09-18T09:39:11.337Z,101502.55
2018-09-18T09:40:11.715Z,101501.89
2018-09-18T09:41:12.137Z,101501.11
2018-09-18T09:42:12.862Z,101500.44
2018-09-18T09:43:13.522Z,101499.52
2018-09-18T09:44:13.757Z,101499.03
2018-09-18T09:44:22.136Z,101494.09
2018-09-18T09:45:23.422Z,101493.68
2018-09-18T09:46:24.382Z,101493.50
2018-09-18T09:47:24.930Z,101492.84
2018-09-18T09:48:25.282Z,101492.62
2018-09-18T09:49:25.699Z,101492.14
2018-09-18T09:50:26.649Z,101491.66
2018-09-18T09:51:27.090Z,101490.98
2018-09-18T09:52:26.675Z,101490.64
2018-09-18T09:53:28.184Z,101489.52
2018-09-18T09:54:28.939Z,101487.70
2018-09-18T09:55:29.341Z,101486.19
2018-09-18T09:56:29.917Z,101485.39
2018-09-18T09:57:30.605Z,101484.36
2018-09-18T09:58:31.358Z,101484.09
2018-09-18T09:59:32.316Z,101483.50
2018-09-18T10:00:31.568Z,101482.88
2018-09-18T10:01:33.115Z,101481.73
2018-09-18T10:02:32.401Z,101480.78
2018-09-18T10:03:33.935Z,101479.47
2018-09-18T10:04:34.253Z,101478.11
2018-09-18T10:05:34.931Z,101477.41
2018-09-18T10:06:35.038Z,101476.59
2018-09-18T10:07:35.338Z,101475.85
2018-09-18T10:08:35.648Z,101474.45
2018-09-18T10:09:36.046Z,101472.99
2018-09-18T10:10:35.888Z,101471.91
2018-09-18T10:11:36.721Z,101470.41
2018-09-18T10:12:38.682Z,101469.12
2018-09-18T10:13:39.523Z,101468.45
2018-09-18T10:14:39.189Z,101467.13
2018-09-18T10:15:39.732Z,101466.03
2018-09-18T10:16:40.310Z,101464.91
2018-09-18T10:17:41.261Z,101464.00
2018-09-18T10:18:41.778Z,101463.19
2018-09-18T10:19:43.122Z,101461.86
2018-09-18T10:20:43.955Z,101460.67
2018-09-18T10:21:44.274Z,101460.20
2018-09-18T10:22:44.579Z,101459.44
2018-09-18T10:23:45.079Z,101458.73
2018-09-18T10:24:45.550Z,101458.09
2018-09-18T10:25:46.345Z,101457.83
2018-09-18T10:26:46.969Z,101457.27
2018-09-18T10:27:46.392Z,101456.41
2018-09-18T10:28:48.233Z,101456.26
2018-09-18T10:29:48.605Z,101455.79
2018-09-18T10:30:49.494Z,101454.87
2018-09-18T10:31:49.543Z,101454.08
2018-09-18T10:32:50.302Z,101453.33
2018-09-18T10:33:49.683Z,101452.47
2018-09-18T10:34:50.990Z,101452.12
2018-09-18T10:35:51.951Z,101451.72
2018-09-18T10:36:52.332Z,101451.03
2018-09-18T10:38:13.744Z,101448.56
2018-09-18T10:39:14.307Z,101448.22
2018-09-18T10:40:13.763Z,101447.66
2018-09-18T10:41:15.387Z,101447.02
2018-09-18T10:42:14.872Z,101446.91
2018-09-18T10:43:15.310Z,101446.87
2018-09-18T10:44:16.846Z,101446.86
2018-09-18T10:45:17.682Z,101446.98
2018-09-18T10:46:18.566Z,101447.00
2018-09-18T10:47:18.916Z,101446.39
2018-09-18T10:48:19.565Z,101445.88
2018-09-18T10:49:19.832Z,101445.23
2018-09-18T10:50:20.193Z,101444.70
2018-09-18T10:51:20.590Z,101444.08
2018-09-18T10:52:21.574Z,101443.23
2018-09-18T10:53:22.083Z,101442.38
2018-09-18T10:54:22.909Z,101441.91
2018-09-18T10:55:23.707Z,101441.19
2018-09-18T10:56:23.229Z,101439.95
2018-09-18T10:57:24.821Z,101438.98
2018-09-18T10:58:25.468Z,101438.16
2018-09-18T10:59:25.885Z,101436.61
2018-09-18T11:00:26.191Z,101435.68
2018-09-18T11:01:26.222Z,101434.53
2018-09-18T11:02:27.059Z,101434.50
2018-09-18T11:03:27.872Z,101433.15
2018-09-18T11:04:28.188Z,101432.52
2018-09-18T11:05:28.697Z,101431.48
2018-09-18T11:06:30.121Z,101430.69
2018-09-18T11:07:29.791Z,101429.89
2018-09-18T11:08:30.450Z,101428.85
2018-09-18T11:09:29.973Z,101428.09
2018-09-18T11:10:30.429Z,101427.92
2018-09-18T11:11:31.897Z,101427.64
2018-09-18T11:12:31.308Z,101426.72
2018-09-18T11:13:32.805Z,101426.02
2018-09-18T11:14:32.263Z,101425.47
2018-09-18T11:15:34.006Z,101423.98
2018-09-18T11:16:33.339Z,101422.70
2018-09-18T11:17:33.807Z,101422.05
2018-09-18T11:18:35.504Z,101421.55
2018-09-18T11:19:35.950Z,101420.66